Lantana, FL

8:42 AM EDT on July 26, 2016 (GMT -0400)
Lantana | | Change Station

Elev 16 ft 26.58 °N, 80.06 °W | Updated 2 minutes ago

Scattered Clouds
Scattered Clouds
83.3 °F
Feels Like 92 °F
N
0.0
Wind Variable Wind from ESE
Gusts 1.0 mph

Today
High -- | Low -- °F
--% Chance of Precip.
Yesterday
High -- | Low -- °F
Precip. -- in
Pressure 30.08 in
Visibility 10.0 miles
Clouds Scattered Clouds 2300 ft
Scattered Clouds 3300 ft
Heat Index 92 °F
Dew Point 76 °F
Humidity 79%
Rainfall 0.00 in
Snow Depth Not available.
6:42 AM 8:10 PM
Waning Gibbous, 55% visible
METAR KPBI 261153Z 11003KT 10SM SCT023 SCT033 29/25 A3008 RMK AO2 SLP186 T02940250 10294 20278 51010
Pressure 30.08 in
Visibility 10.0 miles
Clouds Scattered Clouds 2300 ft
Scattered Clouds 3300 ft
Heat Index 92 °F
Dew Point 76 °F
Humidity 79%
Rainfall 0.00 in
Snow Depth Not available.
6:42 AM 8:10 PM
Waning Gibbous, 55% visible
METAR KPBI 261153Z 11003KT 10SM SCT023 SCT033 29/25 A3008 RMK AO2 SLP186 T02940250 10294 20278 51010

10-Day Weather Forecast

Almanac

Astronomy

Jul. 26, 2016 Rise Set
Actual Time
Civil Twilight
Nautical Twilight
Astronomical Twilight
Moon
Length of Visible Light
Length of Day
Tomorrow will be .
, % of the Moon is Illuminated

Today's Extremes

State Highs State Lows

Community

WunderPhotos

Upload Photos

1,927,581 photos uploaded!

WunderBlog® & News

Nearby

Air Quality

  Air Quality AQ Index Pollutant
Not available.

Snow Depth

Station Depth Elevation

Earthquake Activity

City Distance Mag. Time & Date
Minimum magnitude displayed is 2.5.

Coastal Water Temperatures

Place Temperature

Stations

Nearby Weather Stations

Station Location Temp. Windchill Dew Point Humidity Wind Precip. Elev Updated Type
                   

Watches & Warnings

There are currently no watches in effect.